createdAt,value
2023-11-18T00:00:57.182Z,71.66
2023-11-18T00:03:23.896Z,71.52
2023-11-18T00:05:50.516Z,71.41
2023-11-18T00:08:17.101Z,71.52
2023-11-18T00:10:44.026Z,71.48
2023-11-18T00:13:10.640Z,71.32
2023-11-18T00:15:37.278Z,71.47
2023-11-18T00:18:03.993Z,71.55
2023-11-18T00:20:32.286Z,70.89
2023-11-18T00:22:59.411Z,71.50
2023-11-18T00:25:26.251Z,70.87
2023-11-18T00:27:52.958Z,71.24
2023-11-18T00:30:19.546Z,70.46
2023-11-18T00:32:46.285Z,70.65
2023-11-18T00:35:13.117Z,70.70
2023-11-18T00:37:40.082Z,70.54
2023-11-18T00:40:08.558Z,70.54
2023-11-18T00:42:35.158Z,70.56
2023-11-18T00:45:01.797Z,70.42
2023-11-18T00:47:28.571Z,70.65
2023-11-18T00:49:55.583Z,70.85
2023-11-18T00:52:22.335Z,70.67
2023-11-18T00:54:48.883Z,70.71
2023-11-18T00:57:15.495Z,70.49
2023-11-18T00:59:45.143Z,70.51
2023-11-18T01:02:12.216Z,70.21
2023-11-18T01:04:39.036Z,71.02
2023-11-18T01:07:05.642Z,70.26
2023-11-18T01:09:37.970Z,70.55
2023-11-18T01:12:08.388Z,70.24
2023-11-18T01:14:37.332Z,70.26
2023-11-18T01:17:06.481Z,70.41
2023-11-18T01:19:34.840Z,70.39
2023-11-18T01:22:01.957Z,70.43
2023-11-18T01:24:29.401Z,70.71
2023-11-18T01:26:55.945Z,70.53
2023-11-18T01:29:23.495Z,70.39
2023-11-18T01:31:52.738Z,70.55
2023-11-18T01:34:23.256Z,70.45
2023-11-18T01:36:50.963Z,70.65
2023-11-18T01:39:20.339Z,70.49
2023-11-18T01:41:47.273Z,70.61
2023-11-18T01:44:16.966Z,70.48
2023-11-18T01:46:47.426Z,70.32
2023-11-18T01:49:15.618Z,70.51
2023-11-18T01:51:46.852Z,70.30
2023-11-18T01:54:16.821Z,70.05
2023-11-18T01:56:48.263Z,70.14
2023-11-18T01:59:19.168Z,70.04
2023-11-18T02:02:04.084Z,70.67
2023-11-18T02:04:32.024Z,70.31
2023-11-18T02:06:59.532Z,70.24
2023-11-18T02:09:30.233Z,70.22
2023-11-18T02:12:24.949Z,70.05
2023-11-18T02:14:51.579Z,70.34
2023-11-18T02:17:25.355Z,70.34
2023-11-18T02:19:53.359Z,70.47
2023-11-18T02:22:20.837Z,70.39
2023-11-18T02:24:48.090Z,70.51
2023-11-18T02:27:15.239Z,70.30
2023-11-18T02:29:46.349Z,70.74
2023-11-18T02:32:28.657Z,70.47
2023-11-18T02:35:11.706Z,70.56
2023-11-18T02:37:41.237Z,70.42
2023-11-18T02:40:15.802Z,70.78
2023-11-18T02:42:45.177Z,70.78
2023-11-18T02:45:16.235Z,71.04
2023-11-18T02:47:45.208Z,70.87
2023-11-18T02:50:12.348Z,71.04
2023-11-18T02:52:39.663Z,71.38
2023-11-18T02:55:10.495Z,71.35
2023-11-18T02:57:37.874Z,71.72
2023-11-18T03:00:13.145Z,71.30
2023-11-18T03:02:40.841Z,71.66
2023-11-18T03:05:13.071Z,71.90
2023-11-18T03:07:40.416Z,71.77
2023-11-18T03:10:12.161Z,71.87
2023-11-18T03:12:39.418Z,72.03
2023-11-18T03:15:13.071Z,72.00
2023-11-18T03:17:39.759Z,72.19
2023-11-18T03:20:13.188Z,71.99
2023-11-18T03:22:39.784Z,71.97
2023-11-18T03:25:07.073Z,72.08
2023-11-18T03:27:33.598Z,71.78
2023-11-18T03:30:00.528Z,72.03
2023-11-18T03:32:27.140Z,71.97
2023-11-18T03:34:53.783Z,72.13
2023-11-18T03:37:20.366Z,71.96
2023-11-18T03:39:46.921Z,71.90
2023-11-18T03:42:13.468Z,72.11
2023-11-18T03:44:40.069Z,72.06
2023-11-18T03:47:08.018Z,72.17
2023-11-18T03:49:34.680Z,71.95
2023-11-18T03:52:01.278Z,71.98
2023-11-18T03:54:27.859Z,71.96
2023-11-18T03:56:54.403Z,72.28
2023-11-18T03:59:21.373Z,71.98
2023-11-18T04:01:50.203Z,71.65
2023-11-18T04:04:17.867Z,71.72
2023-11-18T04:06:44.631Z,71.47
2023-11-18T04:09:11.635Z,71.31
2023-11-18T04:11:39.764Z,71.32
2023-11-18T04:14:06.501Z,71.19
2023-11-18T04:16:33.149Z,71.21
2023-11-18T04:18:59.723Z,71.27
2023-11-18T04:21:26.258Z,70.97
2023-11-18T04:23:52.934Z,71.52
2023-11-18T04:26:19.509Z,71.47
2023-11-18T04:28:46.156Z,71.66
2023-11-18T04:31:12.707Z,71.24
2023-11-18T04:33:41.435Z,71.05
2023-11-18T04:36:11.028Z,71.23
2023-11-18T04:38:37.624Z,71.39
2023-11-18T04:41:04.868Z,71.54
2023-11-18T04:43:39.225Z,71.91
2023-11-18T04:46:12.145Z,71.29
2023-11-18T04:48:41.716Z,71.42
2023-11-18T04:51:09.194Z,71.52
2023-11-18T04:53:35.748Z,71.96
2023-11-18T04:56:02.582Z,71.97
2023-11-18T04:58:29.657Z,71.19
2023-11-18T05:00:56.294Z,71.17
2023-11-18T05:03:23.074Z,70.73
2023-11-18T05:05:50.940Z,70.58
2023-11-18T05:08:21.818Z,70.70
2023-11-18T05:10:50.233Z,70.45
2023-11-18T05:13:18.192Z,70.64
2023-11-18T05:15:48.500Z,70.83
2023-11-18T05:18:16.463Z,71.02
2023-11-18T05:20:44.987Z,71.12
2023-11-18T05:23:12.760Z,71.11
2023-11-18T05:25:47.061Z,71.20
2023-11-18T05:28:14.800Z,71.38
2023-11-18T05:30:44.463Z,70.92
2023-11-18T05:33:16.374Z,71.21
2023-11-18T05:35:49.999Z,71.60
2023-11-18T05:38:19.877Z,71.54
2023-11-18T05:41:00.501Z,71.56
2023-11-18T05:43:37.383Z,71.20
2023-11-18T05:46:15.977Z,71.47
2023-11-18T05:48:44.675Z,71.53
2023-11-18T05:51:12.376Z,71.47
2023-11-18T05:53:43.078Z,71.11
2023-11-18T05:56:09.753Z,71.52
2023-11-18T05:58:36.450Z,71.42
2023-11-18T06:01:03.453Z,71.61
2023-11-18T06:03:30.080Z,71.06
2023-11-18T06:05:57.333Z,70.90
2023-11-18T06:08:24.194Z,71.24
2023-11-18T06:10:52.975Z,71.00
2023-11-18T06:13:19.612Z,71.00
2023-11-18T06:15:46.138Z,70.85
2023-11-18T06:18:12.816Z,70.79
2023-11-18T06:20:39.659Z,70.81
2023-11-18T06:23:06.373Z,71.03
2023-11-18T06:25:33.046Z,70.78
2023-11-18T06:27:59.566Z,70.67
2023-11-18T06:30:27.305Z,70.45
2023-11-18T06:32:53.934Z,70.86
2023-11-18T06:35:22.749Z,70.93
2023-11-18T06:37:49.401Z,71.00
2023-11-18T06:40:20.157Z,70.81
2023-11-18T06:42:49.764Z,70.64
2023-11-18T06:45:16.339Z,70.79
2023-11-18T06:47:46.884Z,71.01
2023-11-18T06:50:17.245Z,71.21
2023-11-18T06:52:47.244Z,70.94
2023-11-18T06:55:16.438Z,71.11
2023-11-18T06:57:45.529Z,70.69
2023-11-18T07:00:15.418Z,70.59
2023-11-18T07:02:42.282Z,70.75
2023-11-18T07:05:09.242Z,70.71
2023-11-18T07:07:36.216Z,70.66
2023-11-18T07:10:02.949Z,70.43
2023-11-18T07:12:30.224Z,70.40
2023-11-18T07:15:06.166Z,69.95
2023-11-18T07:17:32.799Z,70.47
2023-11-18T07:19:59.423Z,70.04
2023-11-18T07:22:26.240Z,69.66
2023-11-18T07:24:53.042Z,69.65
2023-11-18T07:27:19.585Z,69.49
2023-11-18T07:29:46.332Z,68.90
2023-11-18T07:32:12.929Z,69.02
2023-11-18T07:34:40.105Z,68.60
2023-11-18T07:37:06.643Z,68.59
2023-11-18T07:39:45.711Z,68.17
2023-11-18T07:42:13.667Z,68.24
2023-11-18T07:44:40.319Z,67.47
2023-11-18T07:47:07.100Z,67.79
2023-11-18T07:49:36.541Z,67.45
2023-11-18T07:52:04.333Z,67.86
2023-11-18T07:54:31.091Z,67.81
2023-11-18T07:56:58.366Z,67.13
2023-11-18T07:59:25.184Z,67.09
2023-11-18T08:01:51.958Z,66.50
2023-11-18T08:04:21.999Z,66.67
2023-11-18T08:06:50.738Z,66.18
2023-11-18T08:09:23.887Z,66.23
2023-11-18T08:11:50.558Z,66.60
2023-11-18T08:14:17.557Z,65.10
2023-11-18T08:16:44.318Z,65.00
2023-11-18T08:19:10.977Z,64.69
2023-11-18T08:21:39.135Z,64.67
2023-11-18T08:24:09.493Z,65.03
2023-11-18T08:26:37.133Z,64.61
2023-11-18T08:29:04.018Z,64.52
2023-11-18T08:31:30.743Z,64.19
2023-11-18T08:33:57.408Z,64.48
2023-11-18T08:36:24.288Z,64.32
2023-11-18T08:38:50.884Z,63.95
2023-11-18T08:41:17.695Z,64.22
2023-11-18T08:43:44.700Z,64.81
2023-11-18T08:46:11.368Z,63.46
2023-11-18T08:48:39.092Z,63.34
2023-11-18T08:51:09.621Z,63.04
2023-11-18T08:53:42.325Z,63.21
2023-11-18T08:56:15.061Z,63.43
2023-11-18T08:58:50.590Z,62.92
2023-11-18T09:01:17.454Z,62.51
2023-11-18T09:03:44.732Z,62.77
2023-11-18T09:06:27.291Z,62.37
2023-11-18T09:08:55.187Z,62.64
2023-11-18T09:11:30.347Z,62.65
2023-11-18T09:14:01.628Z,62.56
2023-11-18T09:16:32.243Z,62.21
2023-11-18T09:19:03.930Z,61.90
2023-11-18T09:21:32.637Z,62.15
2023-11-18T09:23:59.222Z,62.08
2023-11-18T09:26:27.526Z,61.94
2023-11-18T09:28:54.497Z,62.29
2023-11-18T09:31:22.852Z,62.27
2023-11-18T09:33:58.869Z,61.12
2023-11-18T09:36:25.627Z,61.65
2023-11-18T09:38:52.897Z,61.57
2023-11-18T09:41:19.766Z,62.00
2023-11-18T09:43:48.012Z,61.73
2023-11-18T09:46:17.009Z,62.15
2023-11-18T09:48:48.729Z,61.55
2023-11-18T09:51:25.574Z,60.67
2023-11-18T09:53:54.060Z,61.10
2023-11-18T09:56:55.711Z,61.55
2023-11-18T09:59:37.620Z,61.47
2023-11-18T10:02:05.903Z,61.31
2023-11-18T10:04:32.989Z,61.21
2023-11-18T10:07:03.775Z,60.60
2023-11-18T10:09:38.221Z,60.44
2023-11-18T10:12:08.822Z,60.21
2023-11-18T10:14:36.867Z,60.11
2023-11-18T10:17:10.462Z,59.74
2023-11-18T10:19:53.554Z,59.46
2023-11-18T10:22:27.447Z,59.32
2023-11-18T10:24:55.687Z,59.76
2023-11-18T10:27:29.361Z,59.78
2023-11-18T10:29:57.611Z,58.98
2023-11-18T10:32:28.573Z,59.21
2023-11-18T10:35:00.059Z,58.95
2023-11-18T10:37:27.347Z,59.41
2023-11-18T10:39:53.977Z,58.78
2023-11-18T10:42:20.705Z,58.72
2023-11-18T10:44:59.709Z,58.98
2023-11-18T10:47:36.964Z,58.94
2023-11-18T10:50:04.016Z,59.41
2023-11-18T10:52:36.425Z,59.64
2023-11-18T10:55:12.905Z,59.53
2023-11-18T10:57:43.398Z,59.39
2023-11-18T11:00:33.643Z,58.69
2023-11-18T11:03:00.704Z,59.30
2023-11-18T11:05:34.601Z,59.42
2023-11-18T11:08:06.395Z,59.20
2023-11-18T11:10:33.315Z,59.24
2023-11-18T11:13:03.458Z,59.08
2023-11-18T11:15:44.819Z,59.28
2023-11-18T11:18:28.844Z,59.79
2023-11-18T11:21:23.293Z,59.02
2023-11-18T11:24:02.270Z,59.92
2023-11-18T11:27:40.835Z,59.12
2023-11-18T11:30:22.064Z,58.85
2023-11-18T11:32:54.530Z,59.21
2023-11-18T11:35:24.950Z,58.88
2023-11-18T11:37:54.898Z,58.74
2023-11-18T11:40:23.801Z,58.46
2023-11-18T11:42:56.580Z,57.65
2023-11-18T11:45:29.322Z,58.56
2023-11-18T11:48:15.126Z,57.97
2023-11-18T11:50:55.650Z,58.36
2023-11-18T11:53:27.587Z,57.90
2023-11-18T11:56:06.161Z,57.34
2023-11-18T11:58:38.160Z,58.16
2023-11-18T12:01:35.981Z,57.92
2023-11-18T12:04:08.473Z,56.55
2023-11-18T12:06:42.825Z,55.80
2023-11-18T12:09:10.714Z,56.16
2023-11-18T12:11:40.837Z,57.25
2023-11-18T12:14:34.082Z,57.40
2023-11-18T12:17:22.277Z,57.16
2023-11-18T12:19:50.622Z,57.86
2023-11-18T12:22:27.836Z,57.22
2023-11-18T12:25:00.446Z,56.58
2023-11-18T12:27:42.326Z,56.70
2023-11-18T12:30:19.473Z,56.60
2023-11-18T12:33:21.668Z,56.14
2023-11-18T12:36:03.677Z,56.13
2023-11-18T12:39:04.583Z,56.41
2023-11-18T12:41:39.348Z,56.32
2023-11-18T12:44:33.089Z,56.31
2023-11-18T12:47:15.745Z,56.05
2023-11-18T12:49:43.305Z,56.73
2023-11-18T12:52:10.717Z,56.69
2023-11-18T12:54:44.610Z,56.96
2023-11-18T12:57:15.488Z,57.37
2023-11-18T12:59:43.281Z,56.42
2023-11-18T13:02:22.443Z,56.99
2023-11-18T13:04:50.820Z,57.20
2023-11-18T13:07:18.815Z,57.64
2023-11-18T13:09:47.051Z,56.80
2023-11-18T13:12:20.448Z,57.07
2023-11-18T13:14:48.696Z,56.79
2023-11-18T13:17:18.841Z,56.42
2023-11-18T13:19:47.219Z,56.87
2023-11-18T13:22:15.229Z,56.55
2023-11-18T13:24:45.358Z,56.43
2023-11-18T13:27:15.170Z,56.33
2023-11-18T13:29:46.630Z,56.68
2023-11-18T13:32:13.589Z,57.56
2023-11-18T13:34:43.162Z,57.63
2023-11-18T13:37:13.982Z,57.99
2023-11-18T13:39:42.681Z,57.70
2023-11-18T13:42:24.484Z,58.10
2023-11-18T13:44:51.882Z,57.97
2023-11-18T13:47:18.970Z,57.67
2023-11-18T13:49:47.080Z,57.80
2023-11-18T13:52:17.038Z,57.72
2023-11-18T13:54:46.889Z,58.13
2023-11-18T13:57:13.525Z,57.99
2023-11-18T13:59:40.576Z,58.87
2023-11-18T14:02:07.400Z,58.58
2023-11-18T14:04:36.814Z,58.96
2023-11-18T14:07:10.619Z,58.58
2023-11-18T14:09:41.215Z,58.59
2023-11-18T14:12:09.425Z,59.31
2023-11-18T14:14:36.318Z,59.01
2023-11-18T14:17:03.158Z,59.35
2023-11-18T14:19:30.365Z,58.61
2023-11-18T14:21:57.515Z,58.35
2023-11-18T14:24:29.506Z,58.44
2023-11-18T14:26:57.838Z,57.85
2023-11-18T14:29:27.504Z,60.34
2023-11-18T14:31:55.887Z,58.58
2023-11-18T14:34:22.556Z,58.32
2023-11-18T14:36:50.000Z,60.88
2023-11-18T14:39:19.279Z,60.10
2023-11-18T14:41:49.308Z,58.25
2023-11-18T14:44:16.008Z,57.46
2023-11-18T14:46:42.709Z,57.50
2023-11-18T14:49:11.325Z,57.87
2023-11-18T14:51:38.519Z,57.65
2023-11-18T14:54:07.013Z,58.73
2023-11-18T14:56:36.213Z,58.29
2023-11-18T14:59:03.031Z,59.20
2023-11-18T15:01:30.380Z,58.31
2023-11-18T15:03:57.547Z,58.27
2023-11-18T15:06:27.767Z,58.99
2023-11-18T15:08:54.972Z,59.19
2023-11-18T15:11:25.293Z,59.36
2023-11-18T15:13:54.668Z,59.24
2023-11-18T15:16:21.870Z,59.46
2023-11-18T15:18:49.049Z,60.03
2023-11-18T15:21:16.310Z,59.79
2023-11-18T15:23:43.418Z,60.30
2023-11-18T15:26:11.063Z,60.23
2023-11-18T15:28:38.082Z,61.15
2023-11-18T15:31:05.701Z,61.47
2023-11-18T15:33:32.822Z,61.10
2023-11-18T15:36:00.112Z,60.67
2023-11-18T15:38:27.447Z,61.42
2023-11-18T15:40:54.767Z,61.77
2023-11-18T15:43:22.899Z,62.49
2023-11-18T15:45:49.811Z,62.23
2023-11-18T15:48:17.677Z,61.65
2023-11-18T15:50:44.499Z,62.43
2023-11-18T15:53:15.358Z,61.61
2023-11-18T15:55:44.872Z,61.98
2023-11-18T15:58:11.907Z,61.48
2023-11-18T16:00:39.095Z,61.18
2023-11-18T16:03:09.690Z,61.29
2023-11-18T16:05:37.092Z,61.27
2023-11-18T16:08:05.584Z,61.29
2023-11-18T16:10:33.012Z,61.17
2023-11-18T16:13:00.321Z,61.54
2023-11-18T16:15:28.705Z,61.50
2023-11-18T16:17:58.538Z,61.72
2023-11-18T16:20:27.402Z,61.39
2023-11-18T16:22:56.363Z,61.13
2023-11-18T16:25:24.938Z,61.04
2023-11-18T16:27:53.064Z,61.35
2023-11-18T16:30:26.014Z,60.94
2023-11-18T16:32:53.392Z,61.79
2023-11-18T16:35:21.454Z,61.77
2023-11-18T16:37:48.876Z,61.93
2023-11-18T16:40:16.762Z,61.99
2023-11-18T16:42:52.090Z,62.35
2023-11-18T16:45:21.946Z,63.00
2023-11-18T16:47:53.338Z,62.98
2023-11-18T16:50:21.660Z,63.41
2023-11-18T16:52:51.542Z,63.75
2023-11-18T16:55:18.253Z,63.14
2023-11-18T16:57:44.845Z,64.00
2023-11-18T17:00:24.280Z,63.95
2023-11-18T17:02:57.732Z,64.02
2023-11-18T17:05:26.601Z,63.85
2023-11-18T17:07:56.127Z,63.79
2023-11-18T17:10:24.242Z,63.62
2023-11-18T17:12:51.060Z,64.03
2023-11-18T17:15:17.981Z,64.28
2023-11-18T17:17:50.922Z,64.37
2023-11-18T17:20:18.106Z,64.63
2023-11-18T17:22:44.862Z,64.87
2023-11-18T17:25:18.291Z,64.85
2023-11-18T17:27:46.441Z,65.04
2023-11-18T17:30:17.077Z,65.11
2023-11-18T17:32:45.316Z,65.18
2023-11-18T17:35:16.192Z,65.61
2023-11-18T17:37:47.309Z,65.58
2023-11-18T17:40:17.305Z,65.59
2023-11-18T17:42:45.741Z,65.73
2023-11-18T17:45:13.820Z,66.03
2023-11-18T17:47:45.316Z,65.87
2023-11-18T17:50:14.124Z,65.78
2023-11-18T17:52:42.453Z,65.81
2023-11-18T17:55:09.770Z,65.79
2023-11-18T17:57:37.051Z,66.09
2023-11-18T18:00:09.972Z,66.09
2023-11-18T18:02:37.871Z,66.06
2023-11-18T18:05:05.730Z,66.23
2023-11-18T18:07:32.597Z,66.22
2023-11-18T18:09:59.220Z,66.52
2023-11-18T18:12:26.975Z,66.54
2023-11-18T18:14:53.797Z,66.57
2023-11-18T18:17:21.096Z,66.67
2023-11-18T18:19:47.706Z,66.20
2023-11-18T18:22:14.295Z,66.18
2023-11-18T18:24:40.891Z,66.69
2023-11-18T18:27:08.450Z,66.76
2023-11-18T18:29:35.642Z,66.76
2023-11-18T18:32:02.281Z,66.61
2023-11-18T18:34:28.854Z,66.70
2023-11-18T18:36:55.881Z,66.92
2023-11-18T18:39:22.429Z,67.00
2023-11-18T18:41:49.233Z,66.65
2023-11-18T18:44:16.029Z,66.89
2023-11-18T18:46:42.581Z,66.24
2023-11-18T18:49:10.738Z,66.57
2023-11-18T18:51:37.431Z,66.51
2023-11-18T18:54:05.783Z,66.85
2023-11-18T18:56:32.569Z,67.18
2023-11-18T18:58:59.158Z,66.40
2023-11-18T19:01:27.714Z,65.81
2023-11-18T19:03:54.687Z,66.12
2023-11-18T19:06:21.337Z,66.43
2023-11-18T19:08:48.060Z,66.43
2023-11-18T19:11:16.041Z,66.74
2023-11-18T19:13:42.773Z,66.94
2023-11-18T19:16:10.963Z,66.40
2023-11-18T19:18:38.475Z,66.44
2023-11-18T19:21:05.671Z,66.35
2023-11-18T19:23:32.522Z,66.52
2023-11-18T19:25:59.140Z,66.36
2023-11-18T19:28:25.990Z,66.72
2023-11-18T19:30:52.606Z,67.32
2023-11-18T19:33:20.507Z,66.74
2023-11-18T19:35:47.141Z,66.83
2023-11-18T19:38:14.532Z,66.70
2023-11-18T19:40:41.139Z,66.95
2023-11-18T19:43:08.225Z,66.87
2023-11-18T19:45:35.056Z,67.50
2023-11-18T19:48:01.718Z,67.52
2023-11-18T19:50:28.722Z,67.58
2023-11-18T19:52:55.364Z,67.71
2023-11-18T19:55:22.158Z,67.15
2023-11-18T19:57:48.777Z,67.32
2023-11-18T20:00:19.404Z,67.32
2023-11-18T20:02:46.614Z,67.75
2023-11-18T20:05:13.990Z,68.09
2023-11-18T20:07:40.717Z,68.30
2023-11-18T20:10:09.754Z,68.60
2023-11-18T20:12:36.826Z,68.54
2023-11-18T20:15:05.318Z,68.56
2023-11-18T20:17:33.452Z,68.45
2023-11-18T20:20:00.835Z,68.29
2023-11-18T20:22:27.576Z,68.41
2023-11-18T20:24:54.164Z,68.16
2023-11-18T20:27:20.746Z,68.06
2023-11-18T20:29:47.360Z,68.15
2023-11-18T20:32:14.060Z,68.16
2023-11-18T20:34:40.874Z,68.19
2023-11-18T20:37:07.580Z,68.26
2023-11-18T20:39:34.928Z,68.66
2023-11-18T20:42:01.613Z,68.83
2023-11-18T20:44:28.971Z,69.08
2023-11-18T20:47:04.248Z,69.30
2023-11-18T20:49:30.981Z,69.38
2023-11-18T20:51:58.599Z,69.33
2023-11-18T20:54:25.403Z,69.36
2023-11-18T20:56:52.208Z,69.41
2023-11-18T20:59:19.740Z,69.39
2023-11-18T21:01:47.448Z,69.22
2023-11-18T21:04:14.120Z,68.74
2023-11-18T21:06:40.937Z,68.70
2023-11-18T21:09:07.809Z,68.68
2023-11-18T21:11:34.459Z,69.01
2023-11-18T21:14:01.093Z,68.85
2023-11-18T21:16:27.726Z,68.96
2023-11-18T21:18:54.372Z,69.27
2023-11-18T21:21:22.869Z,69.09
2023-11-18T21:23:49.479Z,69.24
2023-11-18T21:26:16.047Z,68.91
2023-11-18T21:28:42.737Z,68.83
2023-11-18T21:31:09.600Z,68.61
2023-11-18T21:33:38.746Z,68.59
2023-11-18T21:36:05.837Z,68.72
2023-11-18T21:38:32.449Z,68.67
2023-11-18T21:40:59.048Z,69.01
2023-11-18T21:43:25.693Z,69.05
2023-11-18T21:45:52.984Z,69.28
2023-11-18T21:48:22.217Z,69.21
2023-11-18T21:50:49.862Z,69.17
2023-11-18T21:53:16.435Z,69.08
2023-11-18T21:55:43.749Z,69.24
2023-11-18T21:58:10.354Z,69.37
2023-11-18T22:00:45.101Z,69.16
2023-11-18T22:03:13.795Z,69.35
2023-11-18T22:05:40.708Z,69.32
2023-11-18T22:08:08.793Z,70.11
2023-11-18T22:10:35.509Z,69.94
2023-11-18T22:13:02.119Z,70.09
2023-11-18T22:15:28.676Z,69.54
2023-11-18T22:17:55.276Z,69.76
2023-11-18T22:20:26.090Z,69.52
2023-11-18T22:22:52.921Z,69.21
2023-11-18T22:25:19.893Z,69.22
2023-11-18T22:27:48.461Z,69.19
2023-11-18T22:30:17.282Z,68.89
2023-11-18T22:32:44.184Z,68.58
2023-11-18T22:35:10.912Z,68.37
2023-11-18T22:37:37.573Z,68.59
2023-11-18T22:40:10.162Z,68.77
2023-11-18T22:42:38.830Z,69.11
2023-11-18T22:45:06.313Z,69.30
2023-11-18T22:47:33.020Z,69.52
2023-11-18T22:50:01.023Z,69.61
2023-11-18T22:52:28.077Z,69.50
2023-11-18T22:54:54.825Z,69.17
2023-11-18T22:57:21.400Z,68.59
2023-11-18T22:59:48.008Z,68.52
2023-11-18T23:02:17.761Z,68.39
2023-11-18T23:04:46.606Z,68.30
2023-11-18T23:07:15.711Z,68.19
2023-11-18T23:09:42.746Z,68.26
2023-11-18T23:12:10.572Z,68.38
2023-11-18T23:14:38.052Z,68.68
2023-11-18T23:19:41.661Z,68.66
2023-11-18T23:22:14.831Z,68.66
2023-11-18T23:24:41.600Z,68.82
2023-11-18T23:27:08.285Z,68.99
2023-11-18T23:29:35.161Z,68.72
2023-11-18T23:32:01.917Z,68.23
2023-11-18T23:34:28.534Z,67.89
2023-11-18T23:36:55.144Z,68.31
2023-11-18T23:39:29.914Z,68.46
2023-11-18T23:41:56.886Z,68.49
2023-11-18T23:44:25.517Z,68.80
2023-11-18T23:46:53.173Z,68.73
2023-11-18T23:49:20.033Z,68.62
2023-11-18T23:51:47.393Z,68.52
2023-11-18T23:54:14.137Z,68.26
2023-11-18T23:56:40.914Z,68.01
2023-11-18T23:59:08.199Z,67.73
